Time;durP1;ratioP1;P1;durP2;ratioP2;P2;SDS_P1;SDS_P2;PMS_P1;PMS_P2;Temp;Humidity;BMP_temperature;BMP_pressure;BME280_temperature;BME280_humidity;BME280_pressure;Samples;Min_cycle;Max_cycle;Signal;HPM_P1;HPM_P2
2022/12/28 00:01:19;;;;;;;9.93;5.80;;;5.40;99.90;;;;;;5053068;28;20478;-53
2022/12/28 00:03:48;;;;;;;10.73;5.73;;;5.40;99.90;;;;;;5052917;28;20466;-53
2022/12/28 00:06:16;;;;;;;11.53;4.97;;;5.40;99.90;;;;;;5053202;28;20473;-52
2022/12/28 00:08:44;;;;;;;9.30;5.23;;;5.40;99.90;;;;;;5052947;28;20467;-53
2022/12/28 00:11:15;;;;;;;6.73;4.47;;;5.40;99.90;;;;;;5053092;28;20548;-51
2022/12/28 00:14:00;;;;;;;9.07;4.00;;;5.40;99.90;;;;;;5053233;28;20505;-49
2022/12/28 00:16:30;;;;;;;7.50;4.13;;;5.40;99.90;;;;;;5052860;28;20234;-53
2022/12/28 00:19:02;;;;;;;6.63;4.60;;;5.40;99.90;;;;;;5052948;28;20492;-52
2022/12/28 00:21:30;;;;;;;9.83;4.03;;;5.40;99.90;;;;;;5052586;28;20462;-52
2022/12/28 00:24:01;;;;;;;7.33;4.23;;;5.50;99.90;;;;;;5052542;28;20470;-53
2022/12/28 00:26:30;;;;;;;9.40;3.60;;;5.40;99.90;;;;;;5052686;28;20470;-50
2022/12/28 00:29:00;;;;;;;8.03;3.70;;;5.40;99.90;;;;;;5052584;28;20946;-52
2022/12/28 00:31:33;;;;;;;9.23;4.30;;;5.50;99.90;;;;;;5051228;28;20974;-51
2022/12/28 00:34:02;;;;;;;12.00;4.57;;;5.40;99.90;;;;;;5052396;28;21002;-51
2022/12/28 00:36:32;;;;;;;7.30;3.50;;;5.40;99.90;;;;;;5052280;28;20480;-52
2022/12/28 00:39:20;;;;;;;7.10;3.70;;;5.40;99.90;;;;;;5052288;28;20278;-52
2022/12/28 00:41:49;;;;;;;8.17;3.70;;;5.40;99.90;;;;;;5052812;28;20638;-53
2022/12/28 00:44:18;;;;;;;6.43;3.23;;;5.40;99.90;;;;;;5052549;28;20473;-53
2022/12/28 00:46:49;;;;;;;6.37;3.40;;;5.40;99.90;;;;;;5051336;28;20565;-53
2022/12/28 00:49:18;;;;;;;7.10;3.33;;;5.40;99.90;;;;;;5052798;28;20466;-51
2022/12/28 00:51:46;;;;;;;5.60;2.97;;;5.40;99.90;;;;;;5051952;28;20992;-52
2022/12/28 00:54:14;;;;;;;6.47;2.73;;;5.40;99.90;;;;;;5051049;28;20240;-49
2022/12/28 00:56:42;;;;;;;6.23;2.57;;;5.40;99.90;;;;;;5049090;28;20628;-53
2022/12/28 00:59:11;;;;;;;8.17;2.97;;;5.40;99.90;;;;;;5044291;28;20481;-51
2022/12/28 01:01:40;;;;;;;7.47;2.87;;;5.40;99.90;;;;;;5051847;28;20981;-51
2022/12/28 01:04:08;;;;;;;6.73;2.90;;;5.40;99.90;;;;;;5051164;28;20489;-51
2022/12/28 01:06:36;;;;;;;5.33;2.70;;;5.40;99.90;;;;;;5050915;28;20281;-53
2022/12/28 01:09:04;;;;;;;6.93;2.93;;;5.40;99.90;;;;;;5051421;28;20235;-52
2022/12/28 01:11:33;;;;;;;6.07;2.70;;;5.40;99.90;;;;;;5052088;28;20230;-51
2022/12/28 01:14:02;;;;;;;7.07;2.53;;;5.40;99.90;;;;;;5051972;28;20590;-51
2022/12/28 01:16:32;;;;;;;6.57;2.37;;;5.50;99.90;;;;;;5052155;28;20224;-53
2022/12/28 01:19:04;;;;;;;20.80;3.67;;;5.50;99.90;;;;;;5052206;28;20960;-51
2022/12/28 01:21:34;;;;;;;6.47;2.63;;;5.40;99.90;;;;;;5050747;28;20469;-51
2022/12/28 01:24:06;;;;;;;6.17;2.83;;;5.50;99.90;;;;;;5050751;28;20228;-51
2022/12/28 01:26:34;;;;;;;5.33;2.50;;;5.50;99.90;;;;;;5052225;28;20224;-51
2022/12/28 01:29:03;;;;;;;6.70;2.73;;;5.50;99.90;;;;;;5052137;28;20739;-53
2022/12/28 01:31:32;;;;;;;5.03;2.37;;;5.50;99.90;;;;;;5051441;28;20845;-52
2022/12/28 01:34:02;;;;;;;7.30;2.03;;;5.50;99.90;;;;;;5051979;28;20999;-53
2022/12/28 01:36:33;;;;;;;4.50;2.43;;;5.50;99.90;;;;;;5051962;28;20579;-51
2022/12/28 01:39:04;;;;;;;7.97;2.80;;;5.50;99.90;;;;;;5052223;28;20494;-54
2022/12/28 01:41:37;;;;;;;6.83;2.50;;;5.40;99.90;;;;;;5052129;28;20806;-53
2022/12/28 01:44:41;;;;;;;9.50;2.63;;;5.40;99.90;;;;;;5054643;28;21340;-52
2022/12/28 01:47:13;;;;;;;6.70;2.50;;;5.40;99.90;;;;;;5055656;28;20310;-53
2022/12/28 01:49:46;;;;;;;7.37;2.30;;;5.40;99.90;;;;;;5055189;28;20470;-54
2022/12/28 01:52:18;;;;;;;7.63;3.10;;;5.40;99.90;;;;;;5048152;28;20465;-50
2022/12/28 01:54:50;;;;;;;7.77;2.50;;;5.40;99.90;;;;;;5053958;28;20493;-53
2022/12/28 01:57:21;;;;;;;4.47;2.37;;;5.40;99.90;;;;;;5055748;28;20710;-51
2022/12/28 01:59:56;;;;;;;4.93;2.40;;;5.40;99.90;;;;;;5054040;28;20521;-51
2022/12/28 02:02:24;;;;;;;5.37;2.43;;;5.40;99.90;;;;;;5055034;28;20571;-51
2022/12/28 02:04:54;;;;;;;7.00;2.40;;;5.40;99.90;;;;;;5055146;28;20454;-52
2022/12/28 02:07:35;;;;;;;7.47;2.20;;;5.30;99.90;;;;;;5054128;28;20228;-52
2022/12/28 02:10:04;;;;;;;5.90;2.33;;;5.30;99.90;;;;;;5055010;28;20215;-49
2022/12/28 02:12:54;;;;;;;10.13;2.60;;;5.30;99.90;;;;;;5055543;28;20474;-52
2022/12/28 02:15:22;;;;;;;6.53;2.07;;;5.30;99.90;;;;;;5055141;28;20492;-52
2022/12/28 02:17:50;;;;;;;5.57;2.27;;;5.30;99.90;;;;;;5053860;28;20458;-53
2022/12/28 02:20:20;;;;;;;6.23;2.63;;;5.30;99.90;;;;;;5053645;28;20500;-51
2022/12/28 02:23:17;;;;;;;5.57;2.33;;;5.30;99.90;;;;;;5054915;28;20466;-51
2022/12/28 02:26:35;;;;;;;6.13;2.30;;;5.30;99.90;;;;;;5034652;28;20819;-53
2022/12/28 02:29:44;;;;;;;7.30;2.97;;;5.30;99.90;;;;;;5054229;28;20458;-53
2022/12/28 02:32:40;;;;;;;6.03;2.30;;;5.30;99.90;;;;;;5054344;28;20509;-52
2022/12/28 02:35:12;;;;;;;5.70;2.33;;;5.30;99.90;;;;;;5054721;28;20484;-53
2022/12/28 02:37:46;;;;;;;6.93;2.40;;;5.30;99.90;;;;;;5053180;28;20466;-52
2022/12/28 02:40:17;;;;;;;3.33;2.50;;;5.30;99.90;;;;;;5052814;28;20991;-52
2022/12/28 02:42:46;;;;;;;8.77;2.83;;;5.20;99.90;;;;;;5054240;28;20458;-51
2022/12/28 02:51:21;;;;;;;5.20;2.63;;;5.20;99.90;;;;;;5054452;28;20461;-54
2022/12/28 02:54:05;;;;;;;6.60;2.80;;;5.20;99.90;;;;;;5053420;28;20469;-52
2022/12/28 02:56:41;;;;;;;5.67;2.63;;;5.20;99.90;;;;;;5054235;28;20583;-50
2022/12/28 02:59:42;;;;;;;5.13;2.47;;;5.20;99.90;;;;;;5044980;28;20309;-51
2022/12/28 03:02:49;;;;;;;4.73;2.50;;;5.20;99.90;;;;;;5013565;28;20481;-51
2022/12/28 03:08:21;;;;;;;3.63;2.40;;;5.20;99.90;;;;;;5032665;28;20232;-51
2022/12/28 03:10:58;;;;;;;8.23;2.80;;;5.10;99.90;;;;;;5032921;28;20473;-53
2022/12/28 03:13:44;;;;;;;7.13;2.83;;;5.10;99.90;;;;;;5034177;28;20227;-49
2022/12/28 03:16:22;;;;;;;5.20;2.70;;;5.10;99.90;;;;;;5033804;28;20536;-52
2022/12/28 03:33:05;;;;;;;4.20;2.83;;;5.10;99.90;;;;;;5045908;28;20481;-52
2022/12/28 03:35:42;;;;;;;7.30;2.97;;;5.10;99.90;;;;;;5051858;28;20990;-52
2022/12/28 03:38:14;;;;;;;6.00;2.83;;;5.10;99.90;;;;;;5053614;28;20943;-52
2022/12/28 03:40:48;;;;;;;11.27;3.20;;;5.10;99.90;;;;;;5053450;28;20474;-51
2022/12/28 03:43:41;;;;;;;9.33;3.07;;;5.10;99.90;;;;;;5052354;28;20475;-53
2022/12/28 03:46:19;;;;;;;5.07;2.97;;;5.10;99.90;;;;;;5052333;28;20467;-53
2022/12/28 03:48:49;;;;;;;5.77;3.30;;;5.10;99.90;;;;;;5052085;28;20477;-51
2022/12/28 03:51:23;;;;;;;5.73;3.00;;;5.10;99.90;;;;;;5052007;28;20466;-53
2022/12/28 03:53:53;;;;;;;6.40;3.33;;;5.10;99.90;;;;;;5051873;28;20466;-52
2022/12/28 03:56:24;;;;;;;7.23;3.17;;;5.10;99.90;;;;;;5051993;28;20908;-54
2022/12/28 03:58:55;;;;;;;5.87;3.50;;;5.10;99.90;;;;;;5053489;28;20461;-51
2022/12/28 04:01:31;;;;;;;4.60;2.90;;;5.10;99.90;;;;;;5050002;28;20916;-52
2022/12/28 04:03:59;;;;;;;5.43;3.43;;;5.10;99.90;;;;;;5051507;28;20467;-53
2022/12/28 04:06:28;;;;;;;6.60;3.43;;;5.10;99.90;;;;;;5051520;28;20586;-52
2022/12/28 04:08:57;;;;;;;5.63;3.03;;;5.10;99.90;;;;;;5051519;28;20227;-52
2022/12/28 04:11:28;;;;;;;7.17;3.60;;;5.10;99.90;;;;;;5051594;28;20481;-52
2022/12/28 04:13:57;;;;;;;5.27;2.70;;;5.10;99.90;;;;;;5051746;28;20478;-52
2022/12/28 04:16:28;;;;;;;5.70;2.77;;;5.10;99.90;;;;;;5051676;28;20546;-51
2022/12/28 04:18:56;;;;;;;5.27;2.80;;;5.10;99.90;;;;;;5051746;28;20486;-50
2022/12/28 04:21:24;;;;;;;7.63;3.30;;;5.10;99.90;;;;;;5051677;28;20858;-52
2022/12/28 04:23:55;;;;;;;6.60;2.87;;;5.10;99.90;;;;;;5051715;28;20466;-54
2022/12/28 04:26:23;;;;;;;8.10;3.10;;;5.10;99.90;;;;;;5051506;28;20471;-49
2022/12/28 04:28:53;;;;;;;7.50;3.20;;;5.10;99.90;;;;;;5042961;28;20544;-51
2022/12/28 04:31:44;;;;;;;6.95;4.07;;;5.10;99.90;;;;;;5044408;28;21932;-52
2022/12/28 04:34:16;;;;;;;5.63;3.40;;;5.10;99.90;;;;;;5051013;28;20753;-52
2022/12/28 04:36:55;;;;;;;4.33;3.17;;;5.10;99.90;;;;;;5051630;28;20497;-52
2022/12/28 04:39:24;;;;;;;6.50;2.90;;;5.10;99.90;;;;;;5051490;28;20472;-51
2022/12/28 04:41:52;;;;;;;6.27;3.20;;;5.20;99.90;;;;;;5052904;28;20708;-53
2022/12/28 04:44:20;;;;;;;7.83;3.30;;;5.20;99.90;;;;;;5052604;28;20459;-54
2022/12/28 04:46:48;;;;;;;6.57;3.47;;;5.10;99.90;;;;;;5052574;28;20480;-53
2022/12/28 04:49:16;;;;;;;6.87;3.40;;;5.20;99.90;;;;;;5052777;28;20457;-52
2022/12/28 04:51:44;;;;;;;7.60;3.80;;;5.20;99.90;;;;;;5052502;28;20957;-51
2022/12/28 04:54:13;;;;;;;5.93;4.23;;;5.20;99.90;;;;;;5052317;28;20473;-51
2022/12/28 04:56:42;;;;;;;5.83;3.90;;;5.20;99.90;;;;;;5052504;28;20533;-51
2022/12/28 04:59:10;;;;;;;6.77;3.40;;;5.20;99.90;;;;;;5052371;28;20461;-52
2022/12/28 05:01:38;;;;;;;6.30;4.03;;;5.20;99.90;;;;;;5051146;28;20470;-51
2022/12/28 05:04:06;;;;;;;7.47;3.80;;;5.20;99.90;;;;;;5051966;28;20544;-52
2022/12/28 05:06:34;;;;;;;5.10;4.13;;;5.20;99.90;;;;;;5052344;28;20470;-53
2022/12/28 05:09:02;;;;;;;7.73;4.43;;;5.20;99.90;;;;;;5052382;28;20472;-51
2022/12/28 05:11:31;;;;;;;5.17;4.17;;;5.20;99.90;;;;;;5051815;28;20469;-49
2022/12/28 05:14:00;;;;;;;4.90;4.17;;;5.30;99.90;;;;;;5052686;28;20822;-51
2022/12/28 05:16:29;;;;;;;6.47;4.20;;;5.30;99.90;;;;;;5052429;28;20880;-50
2022/12/28 05:18:57;;;;;;;5.20;4.10;;;5.40;99.90;;;;;;5056122;28;20501;-49
2022/12/28 05:21:28;;;;;;;7.53;4.17;;;5.30;99.90;;;;;;5056391;28;20992;-54
2022/12/28 05:23:57;;;;;;;7.10;4.50;;;5.30;99.90;;;;;;5055986;28;20472;-53
2022/12/28 05:26:27;;;;;;;9.27;4.87;;;5.40;99.90;;;;;;5056306;28;20473;-52
2022/12/28 05:28:57;;;;;;;6.53;4.40;;;5.40;99.90;;;;;;5055988;28;20462;-53
2022/12/28 05:31:27;;;;;;;6.23;4.20;;;5.30;99.90;;;;;;5055579;28;20535;-53
2022/12/28 05:33:55;;;;;;;5.83;4.50;;;5.30;99.90;;;;;;5053974;28;20822;-50
2022/12/28 05:36:25;;;;;;;8.10;4.80;;;5.40;99.90;;;;;;5055896;28;20481;-51
2022/12/28 05:38:56;;;;;;;5.47;4.90;;;5.40;99.90;;;;;;5055703;28;20317;-50
2022/12/28 05:41:27;;;;;;;8.80;5.10;;;5.30;99.90;;;;;;5056326;28;20488;-55
2022/12/28 05:43:56;;;;;;;6.83;4.60;;;5.40;99.90;;;;;;5055309;28;20469;-51
2022/12/28 05:46:27;;;;;;;7.07;5.30;;;5.30;99.90;;;;;;5055914;28;20508;-53
2022/12/28 05:48:56;;;;;;;6.40;5.00;;;5.40;99.90;;;;;;5055632;28;20462;-51
2022/12/28 05:51:26;;;;;;;8.40;4.87;;;5.40;99.90;;;;;;5055679;28;20470;-54
2022/12/28 05:53:54;;;;;;;6.87;5.00;;;5.40;99.90;;;;;;5055647;28;20465;-52
2022/12/28 05:56:24;;;;;;;5.33;4.40;;;5.50;99.90;;;;;;5055781;28;21000;-52
2022/12/28 05:58:54;;;;;;;7.43;5.17;;;5.50;99.90;;;;;;5055433;28;20464;-52
2022/12/28 06:01:23;;;;;;;6.10;5.07;;;5.50;99.90;;;;;;5054977;28;20484;-52
2022/12/28 06:03:55;;;;;;;6.43;4.90;;;5.50;99.90;;;;;;5055155;28;20462;-52
2022/12/28 06:06:23;;;;;;;8.47;4.57;;;5.50;99.90;;;;;;5055147;28;20461;-53
2022/12/28 06:08:51;;;;;;;5.40;4.90;;;5.50;99.90;;;;;;5055688;28;21004;-51
2022/12/28 06:11:21;;;;;;;5.40;4.33;;;5.50;99.90;;;;;;5055144;28;20470;-54
2022/12/28 06:13:49;;;;;;;6.77;3.87;;;5.50;99.90;;;;;;5055312;28;20477;-52
2022/12/28 06:16:20;;;;;;;5.27;4.43;;;5.50;99.90;;;;;;5055482;28;20486;-53
2022/12/28 06:18:50;;;;;;;7.83;4.90;;;5.60;99.90;;;;;;5054861;28;20482;-52
2022/12/28 06:21:21;;;;;;;6.23;4.57;;;5.50;99.90;;;;;;5055699;28;20472;-53
2022/12/28 06:23:49;;;;;;;5.37;4.80;;;5.60;99.90;;;;;;5055100;28;20520;-51
2022/12/28 06:26:20;;;;;;;5.93;5.27;;;5.60;99.90;;;;;;5055235;28;20840;-52
2022/12/28 06:28:48;;;;;;;5.33;4.47;;;5.60;99.90;;;;;;5050745;28;20224;-52
2022/12/28 06:31:18;;;;;;;5.57;4.77;;;5.70;99.90;;;;;;5054000;28;20466;-55
2022/12/28 06:33:48;;;;;;;5.57;5.00;;;5.70;99.90;;;;;;5054394;28;20261;-52
2022/12/28 06:36:17;;;;;;;6.93;5.20;;;5.70;99.90;;;;;;5054815;28;20474;-52
2022/12/28 06:38:49;;;;;;;6.63;5.07;;;5.70;99.90;;;;;;5054783;28;20480;-53
2022/12/28 06:41:19;;;;;;;5.47;4.97;;;5.80;99.90;;;;;;5054925;28;20463;-52
2022/12/28 06:43:48;;;;;;;4.97;4.47;;;5.70;99.90;;;;;;5054677;28;20706;-52
2022/12/28 06:46:18;;;;;;;5.27;4.77;;;5.80;99.90;;;;;;5055048;28;20806;-50
2022/12/28 06:48:46;;;;;;;5.17;4.67;;;5.80;99.90;;;;;;5054293;28;20477;-51
2022/12/28 06:51:16;;;;;;;6.33;5.60;;;5.80;99.90;;;;;;5054929;28;20224;-52
2022/12/28 06:53:44;;;;;;;6.37;5.30;;;5.90;99.90;;;;;;5054661;28;20220;-53
2022/12/28 06:56:16;;;;;;;6.87;5.43;;;5.90;99.90;;;;;;5054249;28;20476;-51
2022/12/28 06:58:45;;;;;;;7.80;5.10;;;5.90;99.90;;;;;;5044322;28;20477;-52
2022/12/28 07:01:16;;;;;;;5.17;4.70;;;5.90;99.90;;;;;;5054052;28;20482;-53
2022/12/28 07:03:46;;;;;;;5.57;5.00;;;6.00;99.90;;;;;;5053904;28;20311;-52
2022/12/28 07:06:16;;;;;;;5.67;5.10;;;6.00;99.90;;;;;;5054293;28;20470;-52
2022/12/28 07:08:44;;;;;;;5.77;5.03;;;6.00;99.90;;;;;;5054138;28;20235;-52
2022/12/28 07:11:16;;;;;;;5.70;5.20;;;6.00;99.90;;;;;;5054635;28;20235;-51
2022/12/28 07:13:44;;;;;;;5.87;5.30;;;6.00;99.90;;;;;;5053390;28;20614;-54
2022/12/28 07:16:14;;;;;;;6.20;5.07;;;6.10;99.90;;;;;;5052632;28;20477;-53
2022/12/28 07:18:43;;;;;;;5.83;5.03;;;6.10;99.90;;;;;;5054027;28;20710;-53
2022/12/28 07:21:13;;;;;;;7.47;5.43;;;6.10;99.90;;;;;;5053941;28;20565;-52
2022/12/28 07:23:42;;;;;;;5.57;5.07;;;6.10;99.90;;;;;;5053996;28;20467;-52
2022/12/28 07:26:11;;;;;;;6.07;5.47;;;6.10;99.90;;;;;;5054326;28;20470;-52
2022/12/28 07:28:43;;;;;;;5.60;5.10;;;6.20;99.90;;;;;;5053537;28;20253;-52
2022/12/28 07:31:12;;;;;;;6.73;5.57;;;6.20;99.90;;;;;;5053404;28;20598;-52
2022/12/28 07:33:41;;;;;;;7.07;5.90;;;6.20;99.90;;;;;;5053503;28;20828;-53
2022/12/28 07:36:12;;;;;;;6.60;6.00;;;6.30;99.90;;;;;;5033703;28;20235;-54
2022/12/28 07:38:40;;;;;;;5.87;5.37;;;6.30;99.90;;;;;;5034073;28;20487;-53
2022/12/28 07:41:12;;;;;;;6.07;5.47;;;6.30;99.90;;;;;;5033503;28;20459;-54
2022/12/28 07:43:41;;;;;;;6.83;6.23;;;6.40;99.90;;;;;;5045478;28;20480;-53
2022/12/28 07:46:12;;;;;;;6.50;5.90;;;6.40;99.90;;;;;;5053318;28;20462;-51
2022/12/28 07:48:41;;;;;;;6.93;6.23;;;6.40;99.90;;;;;;5053231;28;20240;-53
2022/12/28 07:51:11;;;;;;;7.13;6.53;;;6.50;99.90;;;;;;5053686;28;20253;-53
2022/12/28 07:53:41;;;;;;;7.17;6.13;;;6.40;99.90;;;;;;5053378;28;20743;-54
2022/12/28 07:56:10;;;;;;;7.50;6.80;;;6.50;99.90;;;;;;5053363;28;20569;-53
2022/12/28 07:58:38;;;;;;;7.60;6.90;;;6.50;99.90;;;;;;5052767;28;20489;-50
2022/12/28 08:01:10;;;;;;;7.93;7.23;;;6.50;99.90;;;;;;5049556;28;20466;-50
2022/12/28 08:03:40;;;;;;;7.73;6.90;;;6.60;99.90;;;;;;5051894;28;20269;-49
2022/12/28 08:06:10;;;;;;;8.33;7.53;;;6.50;99.90;;;;;;5053057;28;20587;-50
2022/12/28 08:08:40;;;;;;;8.27;7.50;;;6.50;99.90;;;;;;5052779;28;20220;-51
2022/12/28 08:11:09;;;;;;;8.87;7.97;;;6.60;99.90;;;;;;5053068;28;20224;-51
2022/12/28 08:13:40;;;;;;;9.37;8.53;;;6.60;99.90;;;;;;5052826;28;20239;-50
2022/12/28 08:16:11;;;;;;;9.83;8.93;;;6.60;99.90;;;;;;5052934;28;20688;-51
2022/12/28 08:18:40;;;;;;;9.90;9.00;;;6.70;99.90;;;;;;5052580;28;20488;-51
2022/12/28 08:21:11;;;;;;;11.03;9.93;;;6.70;99.90;;;;;;5053014;28;20462;-51
2022/12/28 08:23:39;;;;;;;11.17;10.07;;;6.70;99.90;;;;;;5051560;28;20231;-52
2022/12/28 08:26:12;;;;;;;10.90;9.80;;;6.70;99.90;;;;;;5052076;28;20250;-50
2022/12/28 08:28:41;;;;;;;11.53;10.40;;;6.70;99.90;;;;;;5052242;28;20220;-51
2022/12/28 08:31:13;;;;;;;13.67;12.27;;;6.80;99.90;;;;;;5051675;28;20235;-52
2022/12/28 08:33:42;;;;;;;11.87;10.77;;;6.80;99.90;;;;;;5052385;28;20223;-50
2022/12/28 08:36:10;;;;;;;12.53;11.33;;;6.90;99.90;;;;;;5034733;28;20576;-50
2022/12/28 08:38:40;;;;;;;13.17;11.87;;;6.90;99.90;;;;;;5052516;28;20695;-50
2022/12/28 08:41:12;;;;;;;14.13;12.83;;;6.90;99.90;;;;;;5053002;28;20239;-51
2022/12/28 08:43:40;;;;;;;13.90;12.50;;;6.90;99.90;;;;;;5052352;28;20219;-50
2022/12/28 08:46:13;;;;;;;15.53;14.03;;;6.90;99.90;;;;;;5052660;28;20224;-50
2022/12/28 08:48:42;;;;;;;15.83;14.23;;;7.00;99.90;;;;;;5052425;28;20258;-51
2022/12/28 08:51:12;;;;;;;16.30;14.73;;;7.00;99.90;;;;;;5052274;28;20228;-51
2022/12/28 08:53:40;;;;;;;17.07;15.20;;;7.00;99.90;;;;;;5052314;28;20286;-51
2022/12/28 08:56:11;;;;;;;16.37;14.70;;;7.10;99.90;;;;;;5052641;28;20223;-50
2022/12/28 08:58:40;;;;;;;17.67;15.93;;;7.10;99.90;;;;;;5051398;28;20223;-52
2022/12/28 09:01:09;;;;;;;15.43;13.70;;;7.10;99.90;;;;;;5051791;28;20220;-51
2022/12/28 09:03:41;;;;;;;16.23;14.53;;;7.20;99.90;;;;;;5052653;28;20220;-51
2022/12/28 09:06:11;;;;;;;17.00;14.70;;;7.20;99.90;;;;;;5032692;28;20684;-49
2022/12/28 09:08:39;;;;;;;16.77;14.80;;;7.30;99.90;;;;;;5030890;28;20232;-49
2022/12/28 09:11:11;;;;;;;19.90;16.67;;;7.30;99.90;;;;;;5038610;28;20684;-51
2022/12/28 09:13:41;;;;;;;18.53;16.73;;;7.40;99.90;;;;;;5046121;28;20683;-52
2022/12/28 09:16:13;;;;;;;17.93;16.20;;;7.30;99.90;;;;;;5060479;28;20314;-52
2022/12/28 09:18:44;;;;;;;18.37;16.47;;;7.40;99.90;;;;;;5060584;28;20215;-51
2022/12/28 09:21:15;;;;;;;18.90;17.00;;;7.40;99.90;;;;;;5063599;28;20247;-49
2022/12/28 09:23:45;;;;;;;18.50;16.63;;;7.40;99.90;;;;;;5064786;28;20230;-52
2022/12/28 09:26:14;;;;;;;17.77;15.97;;;7.50;99.90;;;;;;5064265;28;20227;-50
2022/12/28 09:28:45;;;;;;;17.13;15.43;;;7.40;99.90;;;;;;5064757;28;20584;-51
2022/12/28 09:31:15;;;;;;;17.43;15.63;;;7.40;99.90;;;;;;5063939;28;20223;-50
2022/12/28 09:34:00;;;;;;;16.73;14.97;;;7.50;99.90;;;;;;5064297;28;20223;-51
2022/12/28 09:36:48;;;;;;;16.73;14.97;;;7.60;99.90;;;;;;5062171;28;20748;-51
2022/12/28 09:39:19;;;;;;;15.50;13.90;;;7.60;99.90;;;;;;5065321;28;20235;-47
2022/12/28 09:41:52;;;;;;;15.13;13.60;;;7.60;99.90;;;;;;5065574;28;20241;-50
2022/12/28 09:44:48;;;;;;;14.40;12.90;;;7.60;99.90;;;;;;5066562;28;20227;-53
2022/12/28 09:47:28;;;;;;;15.70;14.20;;;7.60;99.90;;;;;;5063789;28;20333;-52
2022/12/28 09:50:24;;;;;;;14.43;13.03;;;7.70;99.90;;;;;;5065942;28;20305;-52
2022/12/28 09:53:06;;;;;;;14.60;13.10;;;7.70;99.90;;;;;;5062630;28;20231;-51
2022/12/28 09:55:36;;;;;;;15.10;13.63;;;7.70;99.90;;;;;;5064816;28;20603;-50
2022/12/28 09:58:11;;;;;;;16.07;13.57;;;7.70;99.90;;;;;;5065016;28;20242;-51
2022/12/28 10:00:43;;;;;;;13.33;11.97;;;7.80;99.90;;;;;;5065598;28;20223;-51
2022/12/28 10:03:17;;;;;;;12.57;11.37;;;7.80;99.90;;;;;;5065446;28;20246;-50
2022/12/28 10:05:47;;;;;;;12.97;11.67;;;7.80;99.90;;;;;;5069242;28;20273;-49
2022/12/28 10:08:18;;;;;;;12.70;11.50;;;7.80;99.90;;;;;;5069185;28;20222;-50
2022/12/28 10:10:48;;;;;;;12.90;11.47;;;7.90;99.90;;;;;;5067049;28;20237;-51
2022/12/28 10:13:19;;;;;;;11.90;10.80;;;7.90;99.90;;;;;;5065587;28;20219;-51
2022/12/28 10:16:16;;;;;;;12.77;11.47;;;7.90;99.90;;;;;;5068727;28;20285;-49
2022/12/28 10:18:45;;;;;;;11.70;10.60;;;7.90;99.90;;;;;;5068008;28;20325;-53
2022/12/28 10:21:15;;;;;;;12.00;10.80;;;7.90;99.90;;;;;;5069639;28;20318;-49
2022/12/28 10:23:44;;;;;;;12.70;11.40;;;8.00;99.90;;;;;;5068729;28;20223;-47
2022/12/28 10:26:33;;;;;;;12.20;11.00;;;7.90;99.90;;;;;;5066102;28;20220;-50
2022/12/28 10:29:01;;;;;;;11.50;10.40;;;8.00;99.90;;;;;;5067768;28;20223;-50
2022/12/28 10:31:35;;;;;;;11.37;10.17;;;8.10;99.90;;;;;;5068124;28;20264;-53
2022/12/28 10:34:14;;;;;;;14.53;11.20;;;8.10;99.90;;;;;;5067637;28;20713;-50
2022/12/28 10:36:47;;;;;;;11.90;10.80;;;8.10;99.90;;;;;;5068379;28;20218;-51
2022/12/28 10:39:20;;;;;;;12.23;10.93;;;8.10;99.90;;;;;;5069140;28;20227;-52
2022/12/28 10:41:48;;;;;;;13.07;11.77;;;8.20;99.90;;;;;;5065758;28;20643;-50
2022/12/28 10:44:22;;;;;;;12.77;11.47;;;8.20;99.90;;;;;;5067366;28;20230;-49
2022/12/28 10:47:17;;;;;;;12.43;11.20;;;8.20;99.90;;;;;;5067849;28;20739;-50
2022/12/28 10:49:50;;;;;;;13.27;11.97;;;8.20;99.90;;;;;;5068248;28;20227;-52
2022/12/28 10:52:40;;;;;;;13.27;11.93;;;8.20;99.90;;;;;;5066881;28;20219;-50
2022/12/28 10:55:27;;;;;;;13.23;11.97;;;8.20;99.90;;;;;;5069002;28;20223;-51
2022/12/28 10:57:55;;;;;;;13.57;12.37;;;8.30;99.90;;;;;;5067200;28;20332;-50
2022/12/28 11:00:52;;;;;;;13.60;12.37;;;8.30;99.90;;;;;;5067139;28;20234;-52
2022/12/28 11:03:24;;;;;;;13.97;12.57;;;8.30;99.90;;;;;;5065838;28;20227;-47
2022/12/28 11:06:12;;;;;;;13.20;11.90;;;8.30;99.90;;;;;;5067647;28;20230;-49
2022/12/28 11:08:43;;;;;;;12.63;11.33;;;8.30;99.90;;;;;;5064766;28;20231;-50
2022/12/28 11:11:19;;;;;;;11.43;10.40;;;8.30;99.90;;;;;;5066668;28;20710;-50
2022/12/28 11:13:52;;;;;;;11.43;10.23;;;8.30;99.90;;;;;;5065339;28;20219;-51
2022/12/28 11:16:21;;;;;;;10.47;9.47;;;8.30;99.90;;;;;;5067245;28;20587;-50
2022/12/28 11:18:49;;;;;;;9.87;8.90;;;8.40;99.90;;;;;;5067540;28;20247;-49
2022/12/28 11:21:20;;;;;;;8.83;8.03;;;8.40;99.90;;;;;;5066183;28;20234;-50
2022/12/28 11:23:51;;;;;;;8.40;7.60;;;8.40;99.90;;;;;;5067914;28;20226;-49
2022/12/28 11:26:20;;;;;;;7.57;6.83;;;8.40;99.90;;;;;;5065844;28;20230;-50
2022/12/28 11:28:51;;;;;;;8.13;7.17;;;8.40;99.90;;;;;;5066301;28;21246;-50
2022/12/28 11:31:26;;;;;;;8.23;7.43;;;8.40;99.90;;;;;;5066353;28;20227;-49
2022/12/28 11:33:56;;;;;;;8.47;7.67;;;8.40;99.90;;;;;;5066874;28;20229;-50
2022/12/28 11:36:27;;;;;;;7.87;7.07;;;8.40;99.90;;;;;;5067403;28;20223;-50
2022/12/28 11:38:57;;;;;;;6.83;6.23;;;8.40;99.90;;;;;;5067761;28;20314;-50
2022/12/28 11:41:45;;;;;;;6.90;6.30;;;8.40;99.90;;;;;;5067293;28;20687;-50
2022/12/28 11:44:51;;;;;;;7.00;6.30;;;8.50;99.90;;;;;;5062548;28;20223;-49
2022/12/28 11:47:24;;;;;;;7.23;6.63;;;8.40;99.90;;;;;;5064555;28;20234;-51
2022/12/28 11:50:15;;;;;;;7.33;6.63;;;8.40;99.90;;;;;;5066999;28;20227;-50
2022/12/28 11:52:50;;;;;;;7.83;7.10;;;8.40;99.90;;;;;;5064621;28;20227;-48
2022/12/28 11:56:03;;;;;;;8.70;7.90;;;8.40;99.90;;;;;;5065174;28;20223;-50
2022/12/28 11:59:23;;;;;;;8.17;7.37;;;8.40;99.90;;;;;;5006562;28;20281;-48
2022/12/28 12:01:53;;;;;;;8.53;7.73;;;8.50;99.90;;;;;;4984612;28;20229;-50
2022/12/28 12:04:37;;;;;;;9.60;8.30;;;8.50;99.90;;;;;;5046032;28;20223;-52
2022/12/28 12:07:46;;;;;;;8.93;8.13;;;8.50;99.90;;;;;;5065994;28;20227;-51
2022/12/28 12:10:37;;;;;;;9.57;8.67;;;8.50;99.90;;;;;;5066014;28;20226;-51
2022/12/28 12:13:41;;;;;;;9.57;8.67;;;8.60;99.90;;;;;;5064498;28;20239;-52
2022/12/28 12:16:20;;;;;;;10.77;9.70;;;8.60;99.90;;;;;;5050378;28;20636;-51
2022/12/28 12:18:51;;;;;;;10.20;9.20;;;8.60;99.90;;;;;;5065000;28;20702;-50
2022/12/28 12:21:29;;;;;;;11.10;10.00;;;8.60;99.90;;;;;;5064380;28;20590;-49
2022/12/28 12:24:04;;;;;;;12.37;10.97;;;8.60;99.90;;;;;;5064847;28;20223;-51
2022/12/28 12:26:39;;;;;;;12.37;10.80;;;8.60;99.90;;;;;;5063840;28;20231;-52
2022/12/28 12:29:15;;;;;;;11.03;9.93;;;8.60;99.90;;;;;;5064886;28;20706;-50
2022/12/28 12:31:48;;;;;;;11.33;9.27;;;8.60;99.90;;;;;;5066584;28;20301;-51
2022/12/28 12:34:23;;;;;;;9.63;8.63;;;8.60;99.90;;;;;;5064207;28;20229;-49
2022/12/28 12:37:11;;;;;;;8.27;7.50;;;8.60;99.90;;;;;;5065524;28;20215;-51
2022/12/28 12:40:08;;;;;;;9.33;8.33;;;8.60;99.90;;;;;;5062598;28;20219;-49
2022/12/28 12:42:47;;;;;;;8.97;8.07;;;8.60;99.90;;;;;;5064175;28;20227;-53
2022/12/28 12:45:24;;;;;;;8.77;7.57;;;8.60;99.90;;;;;;5064991;28;20227;-53
2022/12/28 12:48:19;;;;;;;7.90;7.10;;;8.60;99.90;;;;;;5064705;28;20226;-53
2022/12/28 12:51:04;;;;;;;8.37;7.57;;;8.70;99.90;;;;;;5063895;28;20220;-52
2022/12/28 12:53:49;;;;;;;9.37;8.33;;;8.70;99.90;;;;;;5062878;28;20227;-52
2022/12/28 12:56:32;;;;;;;11.30;10.13;;;8.70;99.90;;;;;;5063912;28;20229;-51
2022/12/28 12:59:18;;;;;;;10.93;9.77;;;8.70;99.90;;;;;;5062183;28;20311;-50
2022/12/28 13:01:54;;;;;;;11.73;10.53;;;8.70;99.90;;;;;;5051241;28;20734;-48
2022/12/28 13:04:26;;;;;;;12.60;11.40;;;8.70;99.90;;;;;;5052076;28;20299;-49
2022/12/28 13:06:58;;;;;;;11.97;10.77;;;8.60;99.90;;;;;;5052549;28;20242;-50
2022/12/28 13:09:29;;;;;;;11.80;10.50;;;8.70;99.90;;;;;;5052188;28;20235;-50
2022/12/28 13:11:58;;;;;;;12.73;11.50;;;8.70;99.90;;;;;;5051960;28;20227;-47
2022/12/28 13:14:29;;;;;;;12.13;10.93;;;8.70;99.90;;;;;;5051905;28;20235;-50
2022/12/28 13:16:59;;;;;;;11.90;10.67;;;8.70;99.90;;;;;;5050513;28;20220;-50
2022/12/28 13:19:29;;;;;;;12.50;11.27;;;8.70;99.90;;;;;;5052043;28;20247;-50
2022/12/28 13:21:58;;;;;;;13.43;12.10;;;8.70;99.90;;;;;;5052237;28;20238;-50
2022/12/28 13:24:28;;;;;;;11.87;10.77;;;8.80;99.90;;;;;;5052473;28;20718;-49
2022/12/28 13:26:58;;;;;;;11.87;10.73;;;8.80;99.90;;;;;;5040722;28;20232;-51
2022/12/28 13:29:31;;;;;;;10.87;9.77;;;8.80;99.90;;;;;;5051688;28;20231;-50
2022/12/28 13:31:59;;;;;;;11.07;10.07;;;8.70;99.90;;;;;;5051948;28;20731;-51
2022/12/28 13:34:29;;;;;;;10.73;9.63;;;8.70;99.90;;;;;;5051584;28;20216;-51
2022/12/28 13:36:58;;;;;;;11.53;9.53;;;8.70;99.90;;;;;;5052414;28;20220;-49
2022/12/28 13:39:28;;;;;;;10.20;9.20;;;8.70;99.90;;;;;;5055225;28;20226;-50
2022/12/28 13:41:58;;;;;;;10.00;9.00;;;8.70;99.90;;;;;;5056134;28;20232;-49
2022/12/28 13:44:48;;;;;;;9.77;8.77;;;8.80;99.90;;;;;;5055492;28;20557;-50
2022/12/28 13:47:24;;;;;;;10.13;8.30;;;8.70;99.90;;;;;;5055510;28;20228;-50